sensor_id;sensor_type;location;lat;lon;timestamp;P1;durP1;ratioP1;P2;durP2;ratioP2
18947;SDS011;9607;51.600;7.558;2022-07-12T04:27:43;0.90;;;0.90;;
18947;SDS011;9607;51.600;7.558;2022-07-12T04:32:48;0.90;;;0.90;;
18947;SDS011;9607;51.600;7.558;2022-07-12T05:08:38;0.80;;;0.80;;
18947;SDS011;9607;51.600;7.558;2022-07-12T05:11:05;1.55;;;1.10;;
18947;SDS011;9607;51.600;7.558;2022-07-12T05:18:42;1.23;;;1.13;;
18947;SDS011;9607;51.600;7.558;2022-07-12T05:21:09;2.17;;;1.67;;
18947;SDS011;9607;51.600;7.558;2022-07-12T05:23:39;1.98;;;1.77;;
18947;SDS011;9607;51.600;7.558;2022-07-12T05:28:41;2.03;;;1.92;;
18947;SDS011;9607;51.600;7.558;2022-07-12T05:31:09;1.50;;;1.40;;
18947;SDS011;9607;51.600;7.558;2022-07-12T05:36:10;1.40;;;1.30;;
18947;SDS011;9607;51.600;7.558;2022-07-12T05:38:39;1.50;;;1.40;;
18947;SDS011;9607;51.600;7.558;2022-07-12T05:41:06;1.42;;;1.27;;
18947;SDS011;9607;51.600;7.558;2022-07-12T05:43:33;1.50;;;1.40;;
18947;SDS011;9607;51.600;7.558;2022-07-12T06:18:07;1.67;;;1.58;;
18947;SDS011;9607;51.600;7.558;2022-07-12T06:20:34;1.55;;;1.45;;
18947;SDS011;9607;51.600;7.558;2022-07-12T06:23:01;1.45;;;1.35;;
18947;SDS011;9607;51.600;7.558;2022-07-12T06:25:28;1.85;;;1.70;;
18947;SDS011;9607;51.600;7.558;2022-07-12T06:30:31;2.15;;;1.95;;
18947;SDS011;9607;51.600;7.558;2022-07-12T06:35:34;2.00;;;1.80;;
18947;SDS011;9607;51.600;7.558;2022-07-12T06:43:15;3.00;;;2.10;;
18947;SDS011;9607;51.600;7.558;2022-07-12T06:51:27;2.13;;;1.77;;
18947;SDS011;9607;51.600;7.558;2022-07-12T08:01:03;1.50;;;1.30;;
18947;SDS011;9607;51.600;7.558;2022-07-12T08:03:32;1.40;;;1.30;;
18947;SDS011;9607;51.600;7.558;2022-07-12T08:05:59;1.40;;;1.30;;
18947;SDS011;9607;51.600;7.558;2022-07-12T08:08:26;0.75;;;0.75;;
18947;SDS011;9607;51.600;7.558;2022-07-12T08:10:53;0.80;;;0.80;;
18947;SDS011;9607;51.600;7.558;2022-07-12T08:13:20;1.08;;;1.00;;
18947;SDS011;9607;51.600;7.558;2022-07-12T08:15:49;0.95;;;0.95;;
18947;SDS011;9607;51.600;7.558;2022-07-12T08:18:15;1.85;;;0.80;;
18947;SDS011;9607;51.600;7.558;2022-07-12T08:20:42;0.95;;;0.50;;
18947;SDS011;9607;51.600;7.558;2022-07-12T08:23:09;0.60;;;0.60;;
18947;SDS011;9607;51.600;7.558;2022-07-12T08:25:37;0.70;;;0.70;;
18947;SDS011;9607;51.600;7.558;2022-07-12T08:28:03;0.57;;;0.57;;
18947;SDS011;9607;51.600;7.558;2022-07-12T08:30:30;0.60;;;0.60;;
18947;SDS011;9607;51.600;7.558;2022-07-12T08:32:59;0.65;;;0.50;;
18947;SDS011;9607;51.600;7.558;2022-07-12T08:35:26;0.60;;;0.60;;
18947;SDS011;9607;51.600;7.558;2022-07-12T08:37:52;0.52;;;0.52;;
18947;SDS011;9607;51.600;7.558;2022-07-12T08:40:19;1.40;;;0.70;;
18947;SDS011;9607;51.600;7.558;2022-07-12T08:42:46;0.75;;;0.70;;
18947;SDS011;9607;51.600;7.558;2022-07-12T08:45:13;0.70;;;0.70;;
18947;SDS011;9607;51.600;7.558;2022-07-12T08:47:40;0.88;;;0.65;;
18947;SDS011;9607;51.600;7.558;2022-07-12T08:50:12;0.50;;;0.50;;
18947;SDS011;9607;51.600;7.558;2022-07-12T08:52:42;0.95;;;0.50;;
18947;SDS011;9607;51.600;7.558;2022-07-12T08:55:21;0.50;;;0.50;;
18947;SDS011;9607;51.600;7.558;2022-07-12T08:57:49;0.80;;;0.57;;
18947;SDS011;9607;51.600;7.558;2022-07-12T09:00:18;0.40;;;0.40;;
18947;SDS011;9607;51.600;7.558;2022-07-12T09:02:46;0.45;;;0.45;;
18947;SDS011;9607;51.600;7.558;2022-07-12T09:05:15;0.52;;;0.40;;
18947;SDS011;9607;51.600;7.558;2022-07-12T09:07:42;0.40;;;0.40;;
18947;SDS011;9607;51.600;7.558;2022-07-12T09:10:10;0.73;;;0.70;;
18947;SDS011;9607;51.600;7.558;2022-07-12T09:12:39;1.27;;;0.50;;
18947;SDS011;9607;51.600;7.558;2022-07-12T09:15:14;1.50;;;0.82;;
18947;SDS011;9607;51.600;7.558;2022-07-12T09:17:45;1.42;;;0.75;;
18947;SDS011;9607;51.600;7.558;2022-07-12T09:20:22;1.85;;;1.05;;
18947;SDS011;9607;51.600;7.558;2022-07-12T09:22:51;1.38;;;0.88;;
18947;SDS011;9607;51.600;7.558;2022-07-12T09:25:19;1.73;;;0.80;;
18947;SDS011;9607;51.600;7.558;2022-07-12T09:27:47;2.38;;;1.00;;
18947;SDS011;9607;51.600;7.558;2022-07-12T09:30:18;2.67;;;1.10;;
18947;SDS011;9607;51.600;7.558;2022-07-12T09:32:52;1.27;;;1.17;;
18947;SDS011;9607;51.600;7.558;2022-07-12T09:36:00;2.38;;;1.15;;
18947;SDS011;9607;51.600;7.558;2022-07-12T09:38:34;1.90;;;1.30;;
18947;SDS011;9607;51.600;7.558;2022-07-12T09:41:02;1.15;;;0.90;;
18947;SDS011;9607;51.600;7.558;2022-07-12T09:43:29;1.00;;;0.80;;
18947;SDS011;9607;51.600;7.558;2022-07-12T09:45:57;0.60;;;0.60;;
18947;SDS011;9607;51.600;7.558;2022-07-12T09:48:25;2.55;;;1.33;;
18947;SDS011;9607;51.600;7.558;2022-07-12T09:50:55;1.30;;;1.00;;
18947;SDS011;9607;51.600;7.558;2022-07-12T09:53:28;1.73;;;1.00;;
18947;SDS011;9607;51.600;7.558;2022-07-12T09:55:59;4.00;;;1.13;;
18947;SDS011;9607;51.600;7.558;2022-07-12T09:58:30;0.85;;;0.80;;
18947;SDS011;9607;51.600;7.558;2022-07-12T10:01:03;1.20;;;0.70;;
18947;SDS011;9607;51.600;7.558;2022-07-12T10:03:34;1.35;;;0.60;;
18947;SDS011;9607;51.600;7.558;2022-07-12T10:06:02;0.60;;;0.60;;
18947;SDS011;9607;51.600;7.558;2022-07-12T10:08:31;1.58;;;0.93;;
18947;SDS011;9607;51.600;7.558;2022-07-12T10:10:58;1.58;;;0.60;;
18947;SDS011;9607;51.600;7.558;2022-07-12T10:13:25;0.43;;;0.43;;
18947;SDS011;9607;51.600;7.558;2022-07-12T10:15:56;0.57;;;0.52;;
18947;SDS011;9607;51.600;7.558;2022-07-12T10:18:25;0.80;;;0.80;;
18947;SDS011;9607;51.600;7.558;2022-07-12T10:20:52;0.60;;;0.60;;
18947;SDS011;9607;51.600;7.558;2022-07-12T10:23:34;0.93;;;0.70;;
18947;SDS011;9607;51.600;7.558;2022-07-12T10:26:03;0.50;;;0.50;;
18947;SDS011;9607;51.600;7.558;2022-07-12T10:28:59;0.68;;;0.68;;
18947;SDS011;9607;51.600;7.558;2022-07-12T10:31:33;1.77;;;0.82;;
18947;SDS011;9607;51.600;7.558;2022-07-12T10:37:08;1.05;;;0.80;;
18947;SDS011;9607;51.600;7.558;2022-07-12T10:39:37;0.70;;;0.70;;
18947;SDS011;9607;51.600;7.558;2022-07-12T10:42:15;1.52;;;0.70;;
18947;SDS011;9607;51.600;7.558;2022-07-12T10:44:43;0.70;;;0.63;;
18947;SDS011;9607;51.600;7.558;2022-07-12T10:47:12;0.50;;;0.50;;
18947;SDS011;9607;51.600;7.558;2022-07-12T10:49:47;0.60;;;0.47;;
18947;SDS011;9607;51.600;7.558;2022-07-12T10:52:16;1.05;;;0.60;;
18947;SDS011;9607;51.600;7.558;2022-07-12T10:57:45;0.75;;;0.75;;
18947;SDS011;9607;51.600;7.558;2022-07-12T11:00:17;0.93;;;0.70;;
18947;SDS011;9607;51.600;7.558;2022-07-12T11:02:46;1.83;;;0.93;;
18947;SDS011;9607;51.600;7.558;2022-07-12T11:05:13;2.20;;;0.68;;
18947;SDS011;9607;51.600;7.558;2022-07-12T11:07:40;1.02;;;0.60;;
18947;SDS011;9607;51.600;7.558;2022-07-12T11:10:07;0.88;;;0.60;;
18947;SDS011;9607;51.600;7.558;2022-07-12T11:12:39;1.13;;;0.90;;
18947;SDS011;9607;51.600;7.558;2022-07-12T11:15:07;1.80;;;0.80;;
18947;SDS011;9607;51.600;7.558;2022-07-12T11:17:34;0.70;;;0.70;;
18947;SDS011;9607;51.600;7.558;2022-07-12T11:20:08;0.93;;;0.60;;
18947;SDS011;9607;51.600;7.558;2022-07-12T11:22:37;1.23;;;0.80;;
18947;SDS011;9607;51.600;7.558;2022-07-12T11:25:06;0.73;;;0.52;;
18947;SDS011;9607;51.600;7.558;2022-07-12T11:27:34;0.77;;;0.55;;
18947;SDS011;9607;51.600;7.558;2022-07-12T11:30:03;0.82;;;0.77;;
18947;SDS011;9607;51.600;7.558;2022-07-12T11:32:38;1.42;;;0.70;;
18947;SDS011;9607;51.600;7.558;2022-07-12T11:37:49;1.55;;;0.85;;
18947;SDS011;9607;51.600;7.558;2022-07-12T11:40:20;1.92;;;0.68;;
18947;SDS011;9607;51.600;7.558;2022-07-12T11:42:53;0.77;;;0.43;;
18947;SDS011;9607;51.600;7.558;2022-07-12T11:45:22;1.63;;;0.65;;
18947;SDS011;9607;51.600;7.558;2022-07-12T11:47:49;1.33;;;0.60;;
18947;SDS011;9607;51.600;7.558;2022-07-12T11:50:17;0.82;;;0.50;;
18947;SDS011;9607;51.600;7.558;2022-07-12T11:52:44;0.60;;;0.60;;
18947;SDS011;9607;51.600;7.558;2022-07-12T11:55:11;0.68;;;0.43;;
18947;SDS011;9607;51.600;7.558;2022-07-12T11:57:38;0.55;;;0.50;;
18947;SDS011;9607;51.600;7.558;2022-07-12T12:00:15;0.77;;;0.55;;
18947;SDS011;9607;51.600;7.558;2022-07-12T12:02:44;0.60;;;0.40;;
18947;SDS011;9607;51.600;7.558;2022-07-12T12:05:11;1.40;;;0.40;;
18947;SDS011;9607;51.600;7.558;2022-07-12T12:07:38;0.88;;;0.60;;
18947;SDS011;9607;51.600;7.558;2022-07-12T12:10:06;0.95;;;0.40;;
18947;SDS011;9607;51.600;7.558;2022-07-12T12:12:41;0.85;;;0.35;;
18947;SDS011;9607;51.600;7.558;2022-07-12T12:15:10;0.60;;;0.43;;
18947;SDS011;9607;51.600;7.558;2022-07-12T12:17:44;2.40;;;0.80;;
18947;SDS011;9607;51.600;7.558;2022-07-12T12:20:13;0.50;;;0.40;;
18947;SDS011;9607;51.600;7.558;2022-07-12T12:22:42;0.63;;;0.40;;
18947;SDS011;9607;51.600;7.558;2022-07-12T12:25:10;0.50;;;0.43;;
18947;SDS011;9607;51.600;7.558;2022-07-12T12:27:40;1.15;;;0.60;;
18947;SDS011;9607;51.600;7.558;2022-07-12T12:30:08;1.08;;;0.52;;
18947;SDS011;9607;51.600;7.558;2022-07-12T12:32:44;0.50;;;0.50;;
18947;SDS011;9607;51.600;7.558;2022-07-12T12:35:12;2.47;;;1.00;;
18947;SDS011;9607;51.600;7.558;2022-07-12T12:37:39;0.68;;;0.63;;
18947;SDS011;9607;51.600;7.558;2022-07-12T12:40:06;0.88;;;0.73;;
18947;SDS011;9607;51.600;7.558;2022-07-12T12:42:34;1.00;;;0.60;;
18947;SDS011;9607;51.600;7.558;2022-07-12T12:45:01;0.63;;;0.40;;
18947;SDS011;9607;51.600;7.558;2022-07-12T12:47:29;0.50;;;0.50;;
18947;SDS011;9607;51.600;7.558;2022-07-12T12:50:01;1.02;;;0.60;;
18947;SDS011;9607;51.600;7.558;2022-07-12T12:52:28;0.40;;;0.40;;
18947;SDS011;9607;51.600;7.558;2022-07-12T12:54:56;0.43;;;0.43;;
18947;SDS011;9607;51.600;7.558;2022-07-12T12:57:24;1.83;;;0.35;;
18947;SDS011;9607;51.600;7.558;2022-07-12T12:59:52;2.78;;;0.40;;
18947;SDS011;9607;51.600;7.558;2022-07-12T13:02:20;0.65;;;0.30;;
18947;SDS011;9607;51.600;7.558;2022-07-12T13:04:49;1.25;;;0.52;;
18947;SDS011;9607;51.600;7.558;2022-07-12T13:07:18;1.27;;;0.85;;
18947;SDS011;9607;51.600;7.558;2022-07-12T13:09:44;0.50;;;0.40;;
18947;SDS011;9607;51.600;7.558;2022-07-12T13:12:12;1.77;;;0.50;;
18947;SDS011;9607;51.600;7.558;2022-07-12T13:14:39;1.33;;;0.38;;
18947;SDS011;9607;51.600;7.558;2022-07-12T13:17:06;0.50;;;0.50;;
18947;SDS011;9607;51.600;7.558;2022-07-12T13:19:33;1.33;;;0.40;;
18947;SDS011;9607;51.600;7.558;2022-07-12T13:21:59;0.77;;;0.40;;
18947;SDS011;9607;51.600;7.558;2022-07-12T13:24:28;1.95;;;0.40;;
18947;SDS011;9607;51.600;7.558;2022-07-12T13:26:55;0.95;;;0.70;;
18947;SDS011;9607;51.600;7.558;2022-07-12T13:29:22;1.30;;;0.40;;
18947;SDS011;9607;51.600;7.558;2022-07-12T13:31:49;3.00;;;0.90;;
18947;SDS011;9607;51.600;7.558;2022-07-12T13:34:15;0.75;;;0.60;;
18947;SDS011;9607;51.600;7.558;2022-07-12T13:36:42;1.48;;;0.43;;
18947;SDS011;9607;51.600;7.558;2022-07-12T13:39:09;1.60;;;0.70;;
18947;SDS011;9607;51.600;7.558;2022-07-12T13:41:55;1.83;;;0.40;;
18947;SDS011;9607;51.600;7.558;2022-07-12T13:44:22;2.17;;;0.50;;
18947;SDS011;9607;51.600;7.558;2022-07-12T13:46:48;1.05;;;0.30;;
18947;SDS011;9607;51.600;7.558;2022-07-12T13:49:15;0.50;;;0.40;;
18947;SDS011;9607;51.600;7.558;2022-07-12T13:51:42;1.17;;;0.40;;
18947;SDS011;9607;51.600;7.558;2022-07-12T13:54:10;0.47;;;0.47;;
18947;SDS011;9607;51.600;7.558;2022-07-12T13:56:36;2.05;;;0.47;;
18947;SDS011;9607;51.600;7.558;2022-07-12T13:59:05;0.40;;;0.40;;
18947;SDS011;9607;51.600;7.558;2022-07-12T14:01:32;0.63;;;0.45;;
18947;SDS011;9607;51.600;7.558;2022-07-12T14:03:59;1.75;;;0.73;;
18947;SDS011;9607;51.600;7.558;2022-07-12T14:06:26;1.75;;;0.60;;
18947;SDS011;9607;51.600;7.558;2022-07-12T14:08:55;0.90;;;0.40;;
18947;SDS011;9607;51.600;7.558;2022-07-12T14:11:22;0.73;;;0.40;;
18947;SDS011;9607;51.600;7.558;2022-07-12T14:13:50;0.50;;;0.30;;
18947;SDS011;9607;51.600;7.558;2022-07-12T14:16:18;0.55;;;0.50;;
18947;SDS011;9607;51.600;7.558;2022-07-12T14:18:45;0.98;;;0.55;;
18947;SDS011;9607;51.600;7.558;2022-07-12T14:21:12;0.95;;;0.55;;
18947;SDS011;9607;51.600;7.558;2022-07-12T14:23:39;0.82;;;0.40;;
18947;SDS011;9607;51.600;7.558;2022-07-12T14:26:07;0.30;;;0.30;;
18947;SDS011;9607;51.600;7.558;2022-07-12T14:28:34;1.30;;;0.50;;
18947;SDS011;9607;51.600;7.558;2022-07-12T14:31:02;1.10;;;0.40;;
18947;SDS011;9607;51.600;7.558;2022-07-12T14:33:31;0.43;;;0.38;;
18947;SDS011;9607;51.600;7.558;2022-07-12T14:35:58;1.27;;;0.57;;
18947;SDS011;9607;51.600;7.558;2022-07-12T14:38:25;0.55;;;0.30;;
18947;SDS011;9607;51.600;7.558;2022-07-12T14:40:51;1.45;;;0.38;;
18947;SDS011;9607;51.600;7.558;2022-07-12T14:43:19;0.65;;;0.45;;
18947;SDS011;9607;51.600;7.558;2022-07-12T14:45:46;0.75;;;0.40;;
18947;SDS011;9607;51.600;7.558;2022-07-12T14:48:13;0.82;;;0.50;;
18947;SDS011;9607;51.600;7.558;2022-07-12T14:50:41;0.75;;;0.40;;
18947;SDS011;9607;51.600;7.558;2022-07-12T14:53:08;0.57;;;0.57;;
18947;SDS011;9607;51.600;7.558;2022-07-12T14:55:35;0.65;;;0.50;;
18947;SDS011;9607;51.600;7.558;2022-07-12T14:58:03;0.88;;;0.40;;
18947;SDS011;9607;51.600;7.558;2022-07-12T15:00:31;0.85;;;0.45;;
18947;SDS011;9607;51.600;7.558;2022-07-12T15:02:58;2.50;;;0.50;;
18947;SDS011;9607;51.600;7.558;2022-07-12T15:05:25;1.20;;;0.55;;
18947;SDS011;9607;51.600;7.558;2022-07-12T15:07:53;0.77;;;0.45;;
18947;SDS011;9607;51.600;7.558;2022-07-12T15:10:20;1.10;;;0.32;;
18947;SDS011;9607;51.600;7.558;2022-07-12T15:12:47;0.90;;;0.50;;
18947;SDS011;9607;51.600;7.558;2022-07-12T15:15:15;0.77;;;0.57;;
18947;SDS011;9607;51.600;7.558;2022-07-12T15:17:42;0.45;;;0.40;;
18947;SDS011;9607;51.600;7.558;2022-07-12T15:20:09;0.65;;;0.40;;
18947;SDS011;9607;51.600;7.558;2022-07-12T15:22:36;0.60;;;0.45;;
18947;SDS011;9607;51.600;7.558;2022-07-12T15:25:05;1.70;;;0.60;;
18947;SDS011;9607;51.600;7.558;2022-07-12T15:27:32;0.45;;;0.43;;
18947;SDS011;9607;51.600;7.558;2022-07-12T15:29:59;1.17;;;0.57;;
18947;SDS011;9607;51.600;7.558;2022-07-12T15:32:26;1.58;;;0.63;;
18947;SDS011;9607;51.600;7.558;2022-07-12T15:34:53;0.68;;;0.55;;
18947;SDS011;9607;51.600;7.558;2022-07-12T15:37:20;1.08;;;0.70;;
18947;SDS011;9607;51.600;7.558;2022-07-12T15:39:47;0.63;;;0.60;;
18947;SDS011;9607;51.600;7.558;2022-07-12T15:42:15;1.08;;;0.80;;
18947;SDS011;9607;51.600;7.558;2022-07-12T15:44:42;0.80;;;0.45;;
18947;SDS011;9607;51.600;7.558;2022-07-12T15:47:09;3.58;;;0.80;;
18947;SDS011;9607;51.600;7.558;2022-07-12T15:49:38;1.02;;;0.60;;
18947;SDS011;9607;51.600;7.558;2022-07-12T15:52:06;1.02;;;0.85;;
18947;SDS011;9607;51.600;7.558;2022-07-12T15:54:51;1.23;;;0.80;;
18947;SDS011;9607;51.600;7.558;2022-07-12T15:57:19;1.63;;;1.27;;
18947;SDS011;9607;51.600;7.558;2022-07-12T15:59:46;1.83;;;1.00;;
18947;SDS011;9607;51.600;7.558;2022-07-12T16:02:13;1.00;;;0.60;;
18947;SDS011;9607;51.600;7.558;2022-07-12T16:04:40;0.80;;;0.77;;
18947;SDS011;9607;51.600;7.558;2022-07-12T16:07:07;1.50;;;0.90;;
18947;SDS011;9607;51.600;7.558;2022-07-12T16:09:36;1.10;;;1.00;;
18947;SDS011;9607;51.600;7.558;2022-07-12T16:12:03;1.70;;;0.88;;
18947;SDS011;9607;51.600;7.558;2022-07-12T16:17:03;1.73;;;0.90;;
18947;SDS011;9607;51.600;7.558;2022-07-12T16:19:30;1.40;;;1.00;;
18947;SDS011;9607;51.600;7.558;2022-07-12T16:21:57;2.10;;;1.20;;
18947;SDS011;9607;51.600;7.558;2022-07-12T16:24:24;4.55;;;1.10;;
18947;SDS011;9607;51.600;7.558;2022-07-12T16:26:51;1.50;;;1.05;;
18947;SDS011;9607;51.600;7.558;2022-07-12T16:29:19;3.25;;;1.10;;
18947;SDS011;9607;51.600;7.558;2022-07-12T16:31:48;1.27;;;1.13;;
18947;SDS011;9607;51.600;7.558;2022-07-12T16:34:16;2.38;;;1.63;;
18947;SDS011;9607;51.600;7.558;2022-07-12T16:36:43;2.38;;;1.15;;
18947;SDS011;9607;51.600;7.558;2022-07-12T16:39:10;1.95;;;1.10;;
18947;SDS011;9607;51.600;7.558;2022-07-12T16:41:37;2.22;;;1.50;;
18947;SDS011;9607;51.600;7.558;2022-07-12T16:44:04;1.67;;;1.10;;
18947;SDS011;9607;51.600;7.558;2022-07-12T16:46:31;2.00;;;1.30;;
18947;SDS011;9607;51.600;7.558;2022-07-12T16:48:59;2.67;;;1.02;;
18947;SDS011;9607;51.600;7.558;2022-07-12T16:51:26;2.42;;;1.45;;
18947;SDS011;9607;51.600;7.558;2022-07-12T16:53:55;1.92;;;1.27;;
18947;SDS011;9607;51.600;7.558;2022-07-12T16:56:24;1.27;;;1.17;;
18947;SDS011;9607;51.600;7.558;2022-07-12T16:58:52;1.67;;;1.33;;
18947;SDS011;9607;51.600;7.558;2022-07-12T17:01:20;2.30;;;1.10;;
18947;SDS011;9607;51.600;7.558;2022-07-12T17:03:48;2.20;;;1.17;;
18947;SDS011;9607;51.600;7.558;2022-07-12T17:06:17;3.42;;;1.20;;
18947;SDS011;9607;51.600;7.558;2022-07-12T17:08:45;2.80;;;1.10;;
18947;SDS011;9607;51.600;7.558;2022-07-12T17:11:13;1.38;;;1.00;;
18947;SDS011;9607;51.600;7.558;2022-07-12T17:13:40;1.45;;;0.82;;
18947;SDS011;9607;51.600;7.558;2022-07-12T17:16:07;1.05;;;0.95;;
18947;SDS011;9607;51.600;7.558;2022-07-12T17:18:34;1.70;;;1.05;;
18947;SDS011;9607;51.600;7.558;2022-07-12T17:21:01;1.40;;;1.30;;
18947;SDS011;9607;51.600;7.558;2022-07-12T17:23:30;1.20;;;1.10;;
18947;SDS011;9607;51.600;7.558;2022-07-12T17:25:57;1.65;;;1.10;;
18947;SDS011;9607;51.600;7.558;2022-07-12T17:28:24;1.52;;;1.20;;
18947;SDS011;9607;51.600;7.558;2022-07-12T17:30:51;3.10;;;1.17;;
18947;SDS011;9607;51.600;7.558;2022-07-12T17:33:18;2.33;;;1.23;;
18947;SDS011;9607;51.600;7.558;2022-07-12T17:35:46;5.07;;;1.30;;
18947;SDS011;9607;51.600;7.558;2022-07-12T17:38:13;3.08;;;1.10;;
18947;SDS011;9607;51.600;7.558;2022-07-12T17:40:41;2.72;;;1.30;;
18947;SDS011;9607;51.600;7.558;2022-07-12T17:43:08;1.42;;;1.10;;
18947;SDS011;9607;51.600;7.558;2022-07-12T17:45:35;1.23;;;1.00;;
18947;SDS011;9607;51.600;7.558;2022-07-12T17:48:02;1.15;;;1.05;;
18947;SDS011;9607;51.600;7.558;2022-07-12T17:50:29;1.88;;;1.20;;
18947;SDS011;9607;51.600;7.558;2022-07-12T17:52:56;1.75;;;0.90;;
18947;SDS011;9607;51.600;7.558;2022-07-12T17:55:23;1.42;;;1.17;;
18947;SDS011;9607;51.600;7.558;2022-07-12T17:57:51;1.20;;;1.10;;
18947;SDS011;9607;51.600;7.558;2022-07-12T18:00:36;2.90;;;1.33;;
18947;SDS011;9607;51.600;7.558;2022-07-12T18:03:03;1.42;;;1.00;;
18947;SDS011;9607;51.600;7.558;2022-07-12T18:05:30;1.63;;;1.13;;
18947;SDS011;9607;51.600;7.558;2022-07-12T18:07:57;1.17;;;1.08;;
18947;SDS011;9607;51.600;7.558;2022-07-12T18:10:24;2.63;;;1.00;;
18947;SDS011;9607;51.600;7.558;2022-07-12T18:12:52;1.50;;;1.20;;
18947;SDS011;9607;51.600;7.558;2022-07-12T18:15:36;1.27;;;1.00;;
18947;SDS011;9607;51.600;7.558;2022-07-12T18:18:03;2.85;;;1.45;;
18947;SDS011;9607;51.600;7.558;2022-07-12T18:20:30;1.17;;;1.08;;
18947;SDS011;9607;51.600;7.558;2022-07-12T18:22:59;1.35;;;1.00;;
18947;SDS011;9607;51.600;7.558;2022-07-12T18:25:27;1.20;;;0.95;;
18947;SDS011;9607;51.600;7.558;2022-07-12T18:27:55;1.30;;;0.80;;
18947;SDS011;9607;51.600;7.558;2022-07-12T18:30:22;3.63;;;1.50;;
18947;SDS011;9607;51.600;7.558;2022-07-12T18:32:55;3.22;;;2.63;;
18947;SDS011;9607;51.600;7.558;2022-07-12T18:35:23;3.55;;;2.17;;
18947;SDS011;9607;51.600;7.558;2022-07-12T18:37:50;3.83;;;2.47;;
18947;SDS011;9607;51.600;7.558;2022-07-12T18:40:16;1.92;;;1.70;;
18947;SDS011;9607;51.600;7.558;2022-07-12T18:42:43;2.97;;;1.75;;
18947;SDS011;9607;51.600;7.558;2022-07-12T18:45:12;2.17;;;1.60;;
18947;SDS011;9607;51.600;7.558;2022-07-12T18:47:38;3.70;;;1.70;;
18947;SDS011;9607;51.600;7.558;2022-07-12T18:50:06;1.92;;;1.60;;
18947;SDS011;9607;51.600;7.558;2022-07-12T18:52:33;1.83;;;1.42;;
18947;SDS011;9607;51.600;7.558;2022-07-12T18:55:01;1.30;;;1.20;;
18947;SDS011;9607;51.600;7.558;2022-07-12T18:57:29;1.38;;;1.27;;
18947;SDS011;9607;51.600;7.558;2022-07-12T18:59:56;1.17;;;1.08;;
18947;SDS011;9607;51.600;7.558;2022-07-12T19:02:24;1.80;;;1.25;;
18947;SDS011;9607;51.600;7.558;2022-07-12T19:04:51;1.75;;;1.33;;
18947;SDS011;9607;51.600;7.558;2022-07-12T19:07:18;1.60;;;1.23;;
18947;SDS011;9607;51.600;7.558;2022-07-12T19:09:45;1.52;;;0.82;;
18947;SDS011;9607;51.600;7.558;2022-07-12T19:12:11;1.13;;;1.02;;
18947;SDS011;9607;51.600;7.558;2022-07-12T19:14:38;1.60;;;1.13;;
18947;SDS011;9607;51.600;7.558;2022-07-12T19:17:05;1.40;;;1.30;;
18947;SDS011;9607;51.600;7.558;2022-07-12T19:19:33;1.25;;;1.15;;
18947;SDS011;9607;51.600;7.558;2022-07-12T19:22:01;2.13;;;1.20;;
18947;SDS011;9607;51.600;7.558;2022-07-12T19:24:28;1.05;;;0.90;;
18947;SDS011;9607;51.600;7.558;2022-07-12T19:26:55;0.90;;;0.85;;
18947;SDS011;9607;51.600;7.558;2022-07-12T19:29:22;1.20;;;0.98;;
18947;SDS011;9607;51.600;7.558;2022-07-12T19:31:49;0.90;;;0.70;;
18947;SDS011;9607;51.600;7.558;2022-07-12T19:34:16;0.95;;;0.95;;
18947;SDS011;9607;51.600;7.558;2022-07-12T19:36:44;1.10;;;1.00;;
18947;SDS011;9607;51.600;7.558;2022-07-12T19:39:11;1.05;;;0.95;;
18947;SDS011;9607;51.600;7.558;2022-07-12T19:41:38;1.42;;;1.17;;
18947;SDS011;9607;51.600;7.558;2022-07-12T19:44:05;2.08;;;1.20;;
18947;SDS011;9607;51.600;7.558;2022-07-12T19:46:31;1.85;;;1.40;;
18947;SDS011;9607;51.600;7.558;2022-07-12T19:48:58;1.20;;;1.10;;
18947;SDS011;9607;51.600;7.558;2022-07-12T19:51:25;2.33;;;1.27;;
18947;SDS011;9607;51.600;7.558;2022-07-12T19:53:53;2.00;;;1.08;;
18947;SDS011;9607;51.600;7.558;2022-07-12T19:56:20;2.03;;;1.10;;
18947;SDS011;9607;51.600;7.558;2022-07-12T19:58:47;1.48;;;1.33;;
18947;SDS011;9607;51.600;7.558;2022-07-12T20:01:14;1.20;;;1.10;;
18947;SDS011;9607;51.600;7.558;2022-07-12T20:03:41;3.10;;;1.52;;
18947;SDS011;9607;51.600;7.558;2022-07-12T20:06:08;2.85;;;1.92;;
18947;SDS011;9607;51.600;7.558;2022-07-12T20:08:35;3.28;;;1.58;;
18947;SDS011;9607;51.600;7.558;2022-07-12T20:11:03;1.73;;;1.48;;
18947;SDS011;9607;51.600;7.558;2022-07-12T20:13:31;1.95;;;1.65;;
18947;SDS011;9607;51.600;7.558;2022-07-12T20:15:57;2.20;;;1.60;;
18947;SDS011;9607;51.600;7.558;2022-07-12T20:18:25;2.50;;;1.67;;
18947;SDS011;9607;51.600;7.558;2022-07-12T20:20:52;2.50;;;1.65;;
18947;SDS011;9607;51.600;7.558;2022-07-12T20:23:19;1.92;;;1.58;;
18947;SDS011;9607;51.600;7.558;2022-07-12T20:25:46;1.20;;;1.10;;
18947;SDS011;9607;51.600;7.558;2022-07-12T20:28:17;1.50;;;1.30;;
18947;SDS011;9607;51.600;7.558;2022-07-12T20:30:44;2.55;;;1.70;;
18947;SDS011;9607;51.600;7.558;2022-07-12T20:33:13;2.17;;;1.60;;
18947;SDS011;9607;51.600;7.558;2022-07-12T20:35:54;1.70;;;1.60;;
18947;SDS011;9607;51.600;7.558;2022-07-12T20:38:21;1.58;;;1.38;;
18947;SDS011;9607;51.600;7.558;2022-07-12T20:40:50;1.60;;;1.40;;
18947;SDS011;9607;51.600;7.558;2022-07-12T20:43:30;1.75;;;1.63;;
18947;SDS011;9607;51.600;7.558;2022-07-12T20:45:58;3.63;;;2.20;;
18947;SDS011;9607;51.600;7.558;2022-07-12T20:48:25;1.98;;;1.80;;
18947;SDS011;9607;51.600;7.558;2022-07-12T20:50:53;1.83;;;1.40;;
18947;SDS011;9607;51.600;7.558;2022-07-12T20:53:19;1.77;;;1.67;;
18947;SDS011;9607;51.600;7.558;2022-07-12T20:55:46;3.13;;;2.03;;
18947;SDS011;9607;51.600;7.558;2022-07-12T20:58:13;2.30;;;2.05;;
18947;SDS011;9607;51.600;7.558;2022-07-12T21:00:47;2.10;;;1.90;;
18947;SDS011;9607;51.600;7.558;2022-07-12T21:03:13;1.80;;;1.60;;
18947;SDS011;9607;51.600;7.558;2022-07-12T21:05:40;2.08;;;1.65;;
18947;SDS011;9607;51.600;7.558;2022-07-12T21:08:08;1.65;;;1.40;;
18947;SDS011;9607;51.600;7.558;2022-07-12T21:10:38;1.90;;;1.50;;
18947;SDS011;9607;51.600;7.558;2022-07-12T21:13:05;2.25;;;1.70;;
18947;SDS011;9607;51.600;7.558;2022-07-12T21:15:33;1.50;;;1.30;;
18947;SDS011;9607;51.600;7.558;2022-07-12T21:18:01;2.35;;;1.52;;
18947;SDS011;9607;51.600;7.558;2022-07-12T21:20:29;2.08;;;1.73;;
18947;SDS011;9607;51.600;7.558;2022-07-12T21:22:56;2.22;;;1.65;;
18947;SDS011;9607;51.600;7.558;2022-07-12T21:25:22;1.40;;;1.30;;
18947;SDS011;9607;51.600;7.558;2022-07-12T21:27:49;1.60;;;1.50;;
18947;SDS011;9607;51.600;7.558;2022-07-12T21:30:18;2.95;;;1.95;;
18947;SDS011;9607;51.600;7.558;2022-07-12T21:32:45;3.42;;;2.30;;
18947;SDS011;9607;51.600;7.558;2022-07-12T21:35:14;2.75;;;1.95;;
18947;SDS011;9607;51.600;7.558;2022-07-12T21:37:41;2.40;;;1.80;;
18947;SDS011;9607;51.600;7.558;2022-07-12T21:40:08;2.35;;;1.70;;
18947;SDS011;9607;51.600;7.558;2022-07-12T21:42:36;1.60;;;1.50;;
18947;SDS011;9607;51.600;7.558;2022-07-12T21:45:04;2.50;;;1.60;;
18947;SDS011;9607;51.600;7.558;2022-07-12T21:47:31;2.58;;;1.90;;
18947;SDS011;9607;51.600;7.558;2022-07-12T21:49:58;3.30;;;2.22;;
18947;SDS011;9607;51.600;7.558;2022-07-12T21:52:26;3.70;;;2.35;;
18947;SDS011;9607;51.600;7.558;2022-07-12T22:12:48;2.05;;;1.85;;
18947;SDS011;9607;51.600;7.558;2022-07-12T22:15:18;2.72;;;2.30;;
18947;SDS011;9607;51.600;7.558;2022-07-12T22:17:45;2.00;;;1.80;;
18947;SDS011;9607;51.600;7.558;2022-07-12T22:20:18;1.80;;;1.70;;
